createdAt,value
2019-05-22T00:00:10.458Z,29.63
2019-05-22T00:02:40.641Z,18.73
2019-05-22T00:05:14.592Z,22.60
2019-05-22T00:07:48.016Z,24.00
2019-05-22T00:10:20.317Z,28.83
2019-05-22T00:12:49.676Z,23.03
2019-05-22T00:15:19.957Z,19.40
2019-05-22T00:17:50.078Z,22.50
2019-05-22T00:20:20.289Z,21.80
2019-05-22T00:22:48.741Z,17.53
2019-05-22T00:25:21.047Z,21.33
2019-05-22T00:27:52.952Z,23.27
2019-05-22T00:30:23.090Z,18.73
2019-05-22T00:32:51.772Z,18.50
2019-05-22T00:35:21.934Z,18.43
2019-05-22T00:37:51.657Z,16.53
2019-05-22T00:40:21.742Z,19.60
2019-05-22T00:43:03.354Z,22.07
2019-05-22T00:45:22.542Z,17.77
2019-05-22T00:47:54.722Z,21.63
2019-05-22T00:50:29.706Z,21.00
2019-05-22T00:53:16.806Z,27.70
2019-05-22T00:55:49.098Z,24.80
2019-05-22T00:58:25.374Z,21.37
2019-05-22T01:00:55.750Z,25.50
2019-05-22T01:03:25.931Z,19.40
2019-05-22T01:05:55.378Z,20.13
2019-05-22T01:08:25.434Z,22.37
2019-05-22T01:10:55.630Z,18.23
2019-05-22T01:13:25.844Z,22.63
2019-05-22T01:15:55.362Z,28.13
2019-05-22T01:18:25.421Z,24.10
2019-05-22T01:20:55.345Z,28.87
2019-05-22T01:23:24.897Z,23.33
2019-05-22T01:25:53.378Z,25.63
2019-05-22T01:28:24.582Z,23.27
2019-05-22T01:30:54.847Z,25.20
2019-05-22T01:33:25.492Z,28.97
2019-05-22T01:36:01.623Z,23.53
2019-05-22T01:38:31.270Z,23.73
2019-05-22T01:41:01.588Z,29.23
2019-05-22T01:43:30.299Z,23.37
2019-05-22T01:46:03.090Z,21.90
2019-05-22T01:48:36.313Z,21.03
2019-05-22T01:51:06.849Z,26.23
2019-05-22T01:53:38.534Z,24.47
2019-05-22T01:56:08.279Z,25.93
2019-05-22T01:58:37.505Z,23.87
2019-05-22T02:01:07.664Z,26.67
2019-05-22T02:03:36.802Z,22.07
2019-05-22T02:06:07.207Z,20.00
2019-05-22T02:08:41.758Z,226.97
2019-05-22T02:11:10.200Z,245.30
2019-05-22T02:13:43.430Z,253.53
2019-05-22T02:16:11.856Z,240.23
2019-05-22T02:18:41.669Z,251.93
2019-05-22T02:21:11.285Z,235.37
2019-05-22T02:23:40.762Z,238.53
2019-05-22T02:26:10.852Z,234.50
2019-05-22T02:28:40.635Z,245.43
2019-05-22T02:31:08.815Z,248.17
2019-05-22T02:33:38.879Z,262.10
2019-05-22T02:36:07.848Z,254.37
2019-05-22T02:38:37.723Z,257.40
2019-05-22T02:41:06.134Z,256.93
2019-05-22T02:43:34.369Z,252.80
2019-05-22T02:46:04.547Z,248.97
2019-05-22T02:48:33.024Z,250.70
2019-05-22T02:51:01.966Z,268.80
2019-05-22T02:53:30.859Z,257.80
2019-05-22T02:55:59.370Z,261.20
2019-05-22T02:58:29.474Z,244.27
2019-05-22T03:01:02.893Z,245.07
2019-05-22T03:03:33.973Z,253.33
2019-05-22T03:06:03.957Z,253.50
2019-05-22T03:08:58.472Z,244.00
2019-05-22T03:11:30.096Z,250.57
2019-05-22T03:14:01.845Z,263.07
2019-05-22T03:16:51.848Z,255.47
2019-05-22T03:19:26.453Z,16.07
2019-05-22T03:21:55.431Z,55.90
2019-05-22T03:24:24.589Z,250.93
2019-05-22T03:26:53.603Z,252.00
2019-05-22T03:29:44.054Z,245.13
2019-05-22T03:32:12.633Z,249.73
2019-05-22T03:34:42.511Z,254.43
2019-05-22T03:37:11.007Z,258.60
2019-05-22T03:39:40.861Z,261.00
2019-05-22T03:42:10.989Z,272.23
2019-05-22T03:44:39.471Z,22.63
2019-05-22T03:47:09.489Z,27.33
2019-05-22T03:49:37.919Z,224.57
2019-05-22T03:52:06.834Z,214.77
2019-05-22T03:54:36.445Z,248.17
2019-05-22T03:57:05.723Z,230.60
2019-05-22T03:59:34.770Z,122.43
2019-05-22T04:02:03.737Z,224.60
2019-05-22T04:04:35.434Z,89.33
2019-05-22T04:07:05.730Z,13.00
2019-05-22T04:09:34.790Z,16.57
2019-05-22T04:12:03.322Z,12.73
2019-05-22T04:14:35.699Z,14.33
2019-05-22T04:17:05.980Z,14.10
2019-05-22T04:19:48.758Z,7.93
2019-05-22T04:22:06.138Z,9.17
2019-05-22T04:24:34.680Z,14.67
2019-05-22T04:27:04.995Z,8.17
2019-05-22T04:29:34.999Z,12.57
2019-05-22T04:32:13.680Z,6.60
2019-05-22T04:34:42.795Z,9.17
2019-05-22T04:37:13.543Z,9.87
2019-05-22T04:39:43.662Z,9.03
2019-05-22T04:42:12.620Z,14.07
2019-05-22T04:44:58.730Z,12.90
2019-05-22T04:47:27.139Z,8.50
2019-05-22T04:50:06.884Z,10.17
2019-05-22T04:52:26.135Z,10.37
2019-05-22T04:54:55.130Z,15.40
2019-05-22T04:57:24.154Z,16.23
2019-05-22T04:59:52.619Z,14.60
2019-05-22T05:02:21.066Z,187.03
2019-05-22T05:04:49.312Z,189.17
2019-05-22T05:07:17.558Z,178.80
2019-05-22T05:09:45.716Z,179.30
2019-05-22T05:12:14.038Z,190.03
2019-05-22T05:14:42.614Z,176.93
2019-05-22T05:17:11.688Z,180.77
2019-05-22T05:19:40.518Z,186.53
2019-05-22T05:22:09.574Z,189.90
2019-05-22T05:24:38.178Z,190.70
2019-05-22T05:27:07.613Z,205.97
2019-05-22T05:29:37.122Z,191.30
2019-05-22T05:32:05.994Z,201.03
2019-05-22T05:34:40.841Z,194.10
2019-05-22T05:37:10.074Z,206.13
2019-05-22T05:39:40.252Z,209.97
2019-05-22T05:42:08.844Z,219.90
2019-05-22T05:44:37.651Z,229.00
2019-05-22T05:47:06.502Z,256.60
2019-05-22T05:49:35.326Z,242.13
2019-05-22T05:52:03.986Z,250.33
2019-05-22T05:54:32.430Z,263.83
2019-05-22T05:57:13.174Z,265.70
2019-05-22T05:59:42.438Z,264.00
2019-05-22T06:02:11.327Z,249.47
2019-05-22T06:04:40.254Z,257.03
2019-05-22T06:07:19.226Z,246.00
2019-05-22T06:09:49.891Z,264.47
2019-05-22T06:12:19.302Z,254.10
2019-05-22T06:14:48.091Z,252.50
2019-05-22T06:17:30.318Z,265.07
2019-05-22T06:20:09.992Z,257.50
2019-05-22T06:22:38.604Z,262.23
2019-05-22T06:25:08.482Z,273.97
2019-05-22T06:27:44.582Z,278.63
2019-05-22T06:30:16.893Z,271.70
2019-05-22T06:33:05.192Z,265.23
2019-05-22T06:35:33.948Z,261.33
2019-05-22T06:38:20.874Z,260.40
2019-05-22T06:40:49.367Z,282.90
2019-05-22T06:43:26.830Z,262.63
2019-05-22T06:45:55.601Z,277.27
2019-05-22T06:48:23.849Z,278.30
2019-05-22T06:50:52.454Z,267.30
2019-05-22T06:53:20.794Z,262.23
2019-05-22T06:55:49.748Z,278.97
2019-05-22T06:58:21.422Z,257.77
2019-05-22T07:00:50.046Z,256.50
2019-05-22T07:03:18.711Z,243.43
2019-05-22T07:05:47.616Z,248.23
2019-05-22T07:08:16.792Z,244.33
2019-05-22T07:10:45.701Z,253.77
2019-05-22T07:13:15.063Z,243.93
2019-05-22T07:15:44.107Z,264.87
2019-05-22T07:18:14.125Z,259.93
2019-05-22T07:20:42.717Z,262.27
2019-05-22T07:23:15.868Z,229.50
2019-05-22T07:25:44.991Z,37.23
2019-05-22T07:28:14.411Z,50.97
2019-05-22T07:30:44.987Z,37.03
2019-05-22T07:33:14.060Z,35.33
2019-05-22T07:36:04.880Z,36.60
2019-05-22T07:38:14.117Z,40.90
2019-05-22T07:40:43.177Z,42.43
2019-05-22T07:43:11.619Z,35.50
2019-05-22T07:45:40.626Z,42.87
2019-05-22T07:48:10.497Z,37.70
2019-05-22T07:50:40.666Z,36.47
2019-05-22T07:53:09.582Z,45.47
2019-05-22T07:55:38.016Z,35.83
2019-05-22T07:58:14.610Z,37.80
2019-05-22T08:00:48.797Z,39.80
2019-05-22T08:03:17.818Z,39.10
2019-05-22T08:05:54.030Z,41.10
2019-05-22T08:08:23.975Z,38.57
2019-05-22T08:10:53.752Z,32.10
2019-05-22T08:13:22.891Z,34.57
2019-05-22T08:15:51.761Z,46.10
2019-05-22T08:18:21.018Z,41.53
2019-05-22T08:20:49.647Z,38.35
2019-05-22T08:23:18.549Z,40.77
2019-05-22T08:25:47.212Z,43.70
2019-05-22T08:28:16.271Z,35.93
2019-05-22T08:30:45.559Z,44.50
2019-05-22T08:33:15.818Z,41.83
2019-05-22T08:35:45.047Z,38.50
2019-05-22T08:38:14.195Z,48.17
2019-05-22T08:40:42.656Z,45.77
2019-05-22T08:43:12.220Z,40.30
2019-05-22T08:45:40.869Z,56.13
2019-05-22T08:48:10.054Z,44.37
2019-05-22T08:50:41.083Z,49.77
2019-05-22T08:53:11.080Z,49.20
2019-05-22T08:55:40.950Z,50.20
2019-05-22T08:58:10.191Z,56.13
2019-05-22T09:00:39.091Z,52.50
2019-05-22T09:03:08.358Z,56.53
2019-05-22T09:05:36.887Z,61.20
2019-05-22T09:08:05.868Z,57.20
2019-05-22T09:10:34.684Z,55.17
2019-05-22T09:13:03.167Z,60.00
2019-05-22T09:15:33.382Z,53.63
2019-05-22T09:18:03.564Z,47.43
2019-05-22T09:20:48.132Z,53.37
2019-05-22T09:23:03.759Z,49.63
2019-05-22T09:25:34.938Z,52.43
2019-05-22T09:28:03.623Z,49.70
2019-05-22T09:30:32.383Z,47.53
2019-05-22T09:33:01.491Z,36.63
2019-05-22T09:35:31.298Z,47.17
2019-05-22T09:38:00.065Z,38.70
2019-05-22T09:40:28.998Z,41.57
2019-05-22T09:42:57.601Z,38.90
2019-05-22T09:45:26.104Z,43.60
2019-05-22T09:47:55.017Z,44.47
2019-05-22T09:50:24.280Z,47.83
2019-05-22T09:52:57.701Z,44.27
2019-05-22T09:55:23.611Z,41.20
2019-05-22T09:57:53.014Z,41.27
2019-05-22T10:00:21.851Z,37.90
2019-05-22T10:02:50.487Z,32.57
2019-05-22T10:05:19.487Z,43.43
2019-05-22T10:08:00.063Z,37.13
2019-05-22T10:10:18.685Z,250.80
2019-05-22T10:12:47.378Z,261.27
2019-05-22T10:15:17.131Z,260.47
2019-05-22T10:17:47.737Z,259.80
2019-05-22T10:20:16.408Z,249.47
2019-05-22T10:22:44.971Z,257.90
2019-05-22T10:25:16.988Z,254.60
2019-05-22T10:27:45.636Z,250.23
2019-05-22T10:30:15.871Z,254.13
2019-05-22T10:32:44.368Z,246.93
2019-05-22T10:35:13.526Z,251.30
2019-05-22T10:37:43.275Z,262.57
2019-05-22T10:40:12.445Z,266.87
2019-05-22T10:42:44.646Z,260.80
2019-05-22T10:45:11.644Z,253.27
2019-05-22T10:47:40.317Z,262.80
2019-05-22T10:50:09.038Z,240.67
2019-05-22T10:52:37.754Z,259.93
2019-05-22T10:55:07.822Z,262.60
2019-05-22T10:57:40.474Z,246.47
2019-05-22T11:00:10.169Z,248.67
2019-05-22T11:02:39.332Z,239.23
2019-05-22T11:05:08.191Z,255.27
2019-05-22T11:07:36.725Z,242.07
2019-05-22T11:10:05.827Z,248.03
2019-05-22T11:12:35.352Z,274.50
2019-05-22T11:15:05.472Z,238.23
2019-05-22T11:17:33.690Z,256.07
2019-05-22T11:20:02.222Z,246.57
2019-05-22T11:22:30.720Z,247.33
2019-05-22T11:24:59.343Z,254.97
2019-05-22T11:27:27.969Z,252.47
2019-05-22T11:29:57.171Z,242.57
2019-05-22T11:32:26.043Z,248.37
2019-05-22T11:34:54.470Z,251.47
2019-05-22T11:37:22.863Z,260.20
2019-05-22T11:39:52.431Z,255.80
2019-05-22T11:42:21.242Z,254.83
2019-05-22T11:44:49.665Z,246.90
2019-05-22T11:47:18.499Z,247.13
2019-05-22T11:49:46.828Z,252.80
2019-05-22T11:52:15.471Z,240.57
2019-05-22T11:54:44.284Z,238.60
2019-05-22T11:57:12.891Z,265.30
2019-05-22T11:59:41.616Z,248.20
2019-05-22T12:02:11.822Z,233.63
2019-05-22T12:04:48.025Z,229.70
2019-05-22T12:07:11.066Z,236.67
2019-05-22T12:09:40.068Z,231.67
2019-05-22T12:12:10.885Z,226.40
2019-05-22T12:14:39.362Z,229.00
2019-05-22T12:17:09.265Z,274.87
2019-05-22T12:19:37.687Z,266.83
2019-05-22T12:22:06.099Z,246.27
2019-05-22T12:24:37.182Z,249.63
2019-05-22T12:27:05.085Z,254.90
2019-05-22T12:29:33.386Z,245.53
2019-05-22T12:32:01.765Z,236.07
2019-05-22T12:34:30.443Z,214.53
2019-05-22T12:36:59.170Z,205.77
2019-05-22T12:39:28.341Z,210.03
2019-05-22T12:41:58.298Z,197.03
2019-05-22T12:44:26.970Z,214.63
2019-05-22T12:46:55.770Z,217.90
2019-05-22T12:49:24.517Z,255.63
2019-05-22T12:51:53.209Z,221.17
2019-05-22T12:54:22.075Z,224.57
2019-05-22T12:56:50.677Z,215.13
2019-05-22T12:59:19.651Z,214.80
2019-05-22T13:01:49.513Z,224.43
2019-05-22T13:04:18.692Z,213.50
2019-05-22T13:06:46.898Z,215.63
2019-05-22T13:09:15.850Z,217.80
2019-05-22T13:11:44.413Z,221.47
2019-05-22T13:14:12.906Z,213.33
2019-05-22T13:16:45.783Z,228.63
2019-05-22T13:19:11.577Z,248.37
2019-05-22T13:21:40.670Z,236.77
2019-05-22T13:24:14.845Z,252.07
2019-05-22T13:26:44.127Z,242.17
2019-05-22T13:29:13.030Z,247.07
2019-05-22T13:31:41.535Z,240.57
2019-05-22T13:34:11.288Z,245.43
2019-05-22T13:36:39.714Z,244.93
2019-05-22T13:39:09.784Z,247.33
2019-05-22T13:41:38.327Z,237.33
2019-05-22T13:44:07.838Z,250.83
2019-05-22T13:46:36.797Z,248.03
2019-05-22T13:49:05.300Z,239.10
2019-05-22T13:51:33.862Z,235.33
2019-05-22T13:54:02.408Z,245.27
2019-05-22T13:56:31.052Z,233.73
2019-05-22T13:58:59.619Z,230.17
2019-05-22T14:01:28.234Z,231.43
2019-05-22T14:03:56.445Z,234.63
2019-05-22T14:06:24.931Z,232.97
2019-05-22T14:08:53.174Z,242.77
2019-05-22T14:11:22.513Z,235.00
2019-05-22T14:13:51.971Z,232.37
2019-05-22T14:16:20.649Z,243.80
2019-05-22T14:18:48.941Z,238.13
2019-05-22T14:21:17.590Z,242.90
2019-05-22T14:23:46.119Z,244.80
2019-05-22T14:26:14.304Z,244.47
2019-05-22T14:28:43.190Z,244.17
2019-05-22T14:31:11.729Z,236.97
2019-05-22T14:33:40.805Z,233.27
2019-05-22T14:36:09.475Z,234.10
2019-05-22T14:38:37.648Z,231.20
2019-05-22T14:41:06.690Z,234.93
2019-05-22T14:43:35.409Z,233.50
2019-05-22T14:46:04.818Z,243.23
2019-05-22T14:48:34.096Z,244.20
2019-05-22T14:51:02.554Z,233.00
2019-05-22T14:53:31.060Z,231.27
2019-05-22T14:56:00.337Z,231.43
2019-05-22T14:58:29.139Z,237.00
2019-05-22T15:00:57.691Z,226.97
2019-05-22T15:03:26.375Z,232.60
2019-05-22T15:05:54.949Z,223.57
2019-05-22T15:08:23.154Z,227.53
2019-05-22T15:10:52.323Z,240.40
2019-05-22T15:13:20.623Z,226.00
2019-05-22T15:15:49.454Z,232.50
2019-05-22T15:18:17.828Z,226.13
2019-05-22T15:20:53.595Z,246.87
2019-05-22T15:23:22.311Z,245.47
2019-05-22T15:25:50.642Z,241.63
2019-05-22T15:28:18.829Z,275.43
2019-05-22T15:30:47.281Z,193.97
2019-05-22T15:33:15.642Z,186.43
2019-05-22T15:35:43.975Z,193.83
2019-05-22T15:38:12.732Z,199.67
2019-05-22T15:40:41.714Z,207.30
2019-05-22T15:43:10.221Z,199.97
2019-05-22T15:45:40.325Z,196.50
2019-05-22T15:48:17.830Z,204.30
2019-05-22T15:50:46.977Z,197.07
2019-05-22T15:53:16.862Z,202.43
2019-05-22T15:55:45.679Z,206.70
2019-05-22T15:58:15.502Z,205.93
2019-05-22T16:00:44.088Z,208.70
2019-05-22T16:03:18.726Z,198.53
2019-05-22T16:05:48.290Z,199.77
2019-05-22T16:08:17.077Z,196.33
2019-05-22T16:10:48.819Z,209.53
2019-05-22T16:13:19.468Z,209.90
2019-05-22T16:15:50.103Z,199.97
2019-05-22T16:18:20.441Z,198.60
2019-05-22T16:20:49.435Z,198.83
2019-05-22T16:23:21.303Z,209.93
2019-05-22T16:25:49.977Z,192.87
2019-05-22T16:28:18.888Z,192.00
2019-05-22T16:30:47.944Z,193.63
2019-05-22T16:33:16.804Z,197.67
2019-05-22T16:35:45.424Z,205.93
2019-05-22T16:38:14.221Z,202.00
2019-05-22T16:40:43.577Z,197.23
2019-05-22T16:43:12.893Z,199.80
2019-05-22T16:45:41.388Z,202.60
2019-05-22T16:48:27.896Z,200.90
2019-05-22T16:50:43.082Z,205.47
2019-05-22T16:53:12.121Z,200.00
2019-05-22T16:55:41.636Z,214.10
2019-05-22T16:58:10.978Z,198.43
2019-05-22T17:00:40.575Z,202.47
2019-05-22T17:03:09.257Z,209.77
2019-05-22T17:05:38.206Z,207.87
2019-05-22T17:08:07.701Z,202.57
2019-05-22T17:10:38.987Z,199.53
2019-05-22T17:13:11.996Z,204.53
2019-05-22T17:15:38.538Z,205.10
2019-05-22T17:18:07.211Z,199.27
2019-05-22T17:20:36.812Z,207.53
2019-05-22T17:23:05.701Z,199.93
2019-05-22T17:25:34.296Z,207.23
2019-05-22T17:28:02.551Z,212.67
2019-05-22T17:30:33.244Z,212.40
2019-05-22T17:33:02.012Z,199.77
2019-05-22T17:35:31.307Z,202.70
2019-05-22T17:38:00.237Z,216.87
2019-05-22T17:40:28.905Z,208.73
2019-05-22T17:42:57.557Z,205.63
2019-05-22T17:45:26.911Z,202.90
2019-05-22T17:47:55.598Z,200.73
2019-05-22T17:50:27.623Z,201.40
2019-05-22T17:52:56.790Z,202.37
2019-05-22T17:55:25.850Z,204.10
2019-05-22T17:57:54.774Z,198.73
2019-05-22T18:00:27.449Z,195.93
2019-05-22T18:02:56.085Z,202.57
2019-05-22T18:05:25.412Z,205.67
2019-05-22T18:07:54.515Z,209.03
2019-05-22T18:10:23.742Z,206.07
2019-05-22T18:12:52.316Z,205.17
2019-05-22T18:15:21.632Z,226.17
2019-05-22T18:17:51.631Z,209.30
2019-05-22T18:20:20.166Z,211.27
2019-05-22T18:22:48.835Z,205.27
2019-05-22T18:25:18.042Z,207.77
2019-05-22T18:27:49.678Z,207.73
2019-05-22T18:30:18.247Z,205.43
2019-05-22T18:32:46.829Z,214.80
2019-05-22T18:35:15.163Z,208.50
2019-05-22T18:37:43.889Z,211.53
2019-05-22T18:40:12.642Z,206.13
2019-05-22T18:42:41.296Z,207.20
2019-05-22T18:45:11.185Z,238.43
2019-05-22T18:47:39.769Z,224.07
2019-05-22T18:50:08.363Z,109.40
2019-05-22T18:52:41.473Z,127.33
2019-05-22T18:55:08.916Z,50.93
2019-05-22T18:57:37.890Z,36.43
2019-05-22T19:00:09.356Z,50.40
2019-05-22T19:02:38.181Z,31.90
2019-05-22T19:05:07.167Z,137.70
2019-05-22T19:07:35.948Z,139.70
2019-05-22T19:10:09.143Z,162.17
2019-05-22T19:12:37.949Z,64.97
2019-05-22T19:15:11.166Z,229.67
2019-05-22T19:17:40.280Z,209.13
2019-05-22T19:20:09.051Z,114.50
2019-05-22T19:22:38.237Z,94.40
2019-05-22T19:25:13.278Z,16.27
2019-05-22T19:27:46.985Z,20.23
2019-05-22T19:30:16.606Z,36.80
2019-05-22T19:32:45.814Z,25.03
2019-05-22T19:35:16.396Z,14.77
2019-05-22T19:37:46.340Z,16.27
2019-05-22T19:40:16.147Z,12.83
2019-05-22T19:42:47.451Z,25.57
2019-05-22T19:45:17.265Z,25.13
2019-05-22T19:47:54.869Z,63.20
2019-05-22T19:50:25.828Z,22.50
2019-05-22T19:52:57.093Z,19.20
2019-05-22T19:55:47.320Z,17.47
2019-05-22T19:58:22.154Z,46.43
2019-05-22T20:00:51.854Z,16.20
2019-05-22T20:03:22.654Z,7.40
2019-05-22T20:05:53.232Z,11.33
2019-05-22T20:08:22.755Z,21.80
2019-05-22T20:10:52.927Z,9.60
2019-05-22T20:13:24.139Z,17.07
2019-05-22T20:15:53.867Z,18.97
2019-05-22T20:18:23.917Z,10.00
2019-05-22T20:20:54.042Z,34.63
2019-05-22T20:23:35.344Z,81.60
2019-05-22T20:25:53.440Z,117.70
2019-05-22T20:28:23.928Z,228.10
2019-05-22T20:30:54.489Z,169.77
2019-05-22T20:33:26.391Z,87.33
2019-05-22T20:35:53.550Z,57.93
2019-05-22T20:38:23.728Z,84.80
2019-05-22T20:40:52.983Z,32.10
2019-05-22T20:43:24.021Z,23.57
2019-05-22T20:45:53.763Z,24.43
2019-05-22T20:48:33.618Z,30.73
2019-05-22T20:51:04.537Z,22.17
2019-05-22T20:53:52.383Z,30.90
2019-05-22T20:56:08.047Z,66.77
2019-05-22T20:58:36.705Z,18.30
2019-05-22T21:01:05.784Z,8.80
2019-05-22T21:03:34.883Z,15.30
2019-05-22T21:06:05.718Z,13.87
2019-05-22T21:08:34.243Z,20.43
2019-05-22T21:11:03.153Z,9.27
2019-05-22T21:13:32.078Z,20.90
2019-05-22T21:16:01.648Z,9.70
2019-05-22T21:18:36.881Z,7.07
2019-05-22T21:21:06.591Z,13.60
2019-05-22T21:23:35.795Z,19.50
2019-05-22T21:26:04.430Z,15.63
2019-05-22T21:28:33.036Z,8.30
2019-05-22T21:31:02.184Z,9.20
2019-05-22T21:33:30.728Z,13.27
2019-05-22T21:36:00.273Z,8.57
2019-05-22T21:38:30.574Z,9.40
2019-05-22T21:40:59.545Z,18.17
2019-05-22T21:43:28.340Z,6.97
2019-05-22T21:45:57.397Z,5.67
2019-05-22T21:48:26.920Z,12.97
2019-05-22T21:50:56.389Z,17.80
2019-05-22T21:53:25.211Z,9.23
2019-05-22T21:56:04.049Z,8.60
2019-05-22T21:58:25.517Z,8.67
2019-05-22T22:00:58.864Z,16.83
2019-05-22T22:03:38.855Z,13.80
2019-05-22T22:06:08.969Z,15.53
2019-05-22T22:08:37.540Z,17.97
2019-05-22T22:11:06.019Z,12.47
2019-05-22T22:13:34.974Z,15.53
2019-05-22T22:16:03.576Z,7.63
2019-05-22T22:18:33.070Z,65.77
2019-05-22T22:21:02.279Z,6.30
2019-05-22T22:23:31.032Z,8.50
2019-05-22T22:26:00.309Z,12.20
2019-05-22T22:28:29.857Z,11.77
2019-05-22T22:31:00.318Z,8.00
2019-05-22T22:33:29.669Z,22.00
2019-05-22T22:35:58.423Z,6.37
2019-05-22T22:38:28.044Z,12.33
2019-05-22T22:40:57.304Z,10.10
2019-05-22T22:43:28.347Z,12.70
2019-05-22T22:46:14.887Z,10.03
2019-05-22T22:48:45.225Z,14.23
2019-05-22T22:51:15.796Z,7.80
2019-05-22T22:53:45.744Z,11.77
2019-05-22T22:56:16.079Z,10.57
2019-05-22T22:58:44.763Z,9.87
2019-05-22T23:01:17.757Z,27.23
2019-05-22T23:03:47.288Z,28.50
2019-05-22T23:06:16.053Z,8.87
2019-05-22T23:08:45.269Z,11.43
2019-05-22T23:11:15.605Z,12.13
2019-05-22T23:13:45.656Z,117.03
2019-05-22T23:16:15.096Z,35.07
2019-05-22T23:18:47.292Z,95.07
2019-05-22T23:21:16.402Z,15.03
2019-05-22T23:23:44.346Z,22.63
2019-05-22T23:26:13.301Z,12.93
2019-05-22T23:28:42.313Z,17.10
2019-05-22T23:31:12.060Z,79.53
2019-05-22T23:33:41.073Z,220.90
2019-05-22T23:36:11.319Z,215.40
2019-05-22T23:38:40.314Z,216.93
2019-05-22T23:41:08.998Z,218.00
2019-05-22T23:43:37.517Z,222.77
2019-05-22T23:46:06.402Z,220.53
2019-05-22T23:48:35.058Z,220.13
2019-05-22T23:51:03.955Z,233.60
2019-05-22T23:53:33.007Z,231.03
2019-05-22T23:56:01.940Z,232.50
2019-05-22T23:58:32.802Z,235.17
